sensor_id;sensor_type;location;lat;lon;timestamp;pressure;altitude;pressure_sealevel;temperature;humidity
8573;BME280;4324;42.012;24.872;2023-05-01T00:02:19;98845.41;;;14.99;55.90
8573;BME280;4324;42.012;24.872;2023-05-01T00:04:45;98858.09;;;14.97;55.63
8573;BME280;4324;42.012;24.872;2023-05-01T00:07:12;98849.50;;;14.95;55.47
8573;BME280;4324;42.012;24.872;2023-05-01T00:09:39;98855.63;;;14.89;55.95
8573;BME280;4324;42.012;24.872;2023-05-01T00:12:07;98853.50;;;14.78;56.02
8573;BME280;4324;42.012;24.872;2023-05-01T00:14:36;98806.13;;;14.45;55.74
8573;BME280;4324;42.012;24.872;2023-05-01T00:17:03;98848.94;;;14.72;56.52
8573;BME280;4324;42.012;24.872;2023-05-01T00:19:30;98857.53;;;14.67;56.99
8573;BME280;4324;42.012;24.872;2023-05-01T00:21:57;98875.16;;;14.62;57.51
8573;BME280;4324;42.012;24.872;2023-05-01T00:24:24;98849.13;;;14.42;57.22
8573;BME280;4324;42.012;24.872;2023-05-01T00:26:51;98857.28;;;14.56;56.97
8573;BME280;4324;42.012;24.872;2023-05-01T00:29:20;98837.72;;;14.48;57.48
8573;BME280;4324;42.012;24.872;2023-05-01T00:31:47;98830.00;;;14.54;57.64
8573;BME280;4324;42.012;24.872;2023-05-01T00:34:13;98857.63;;;14.81;57.45
8573;BME280;4324;42.012;24.872;2023-05-01T00:36:41;98845.97;;;14.88;57.38
8573;BME280;4324;42.012;24.872;2023-05-01T00:39:08;98837.19;;;14.94;56.62
8573;BME280;4324;42.012;24.872;2023-05-01T00:41:35;98830.44;;;14.98;56.95
8573;BME280;4324;42.012;24.872;2023-05-01T00:44:02;98808.28;;;14.91;56.45
8573;BME280;4324;42.012;24.872;2023-05-01T00:46:30;98798.84;;;14.95;55.74
8573;BME280;4324;42.012;24.872;2023-05-01T00:48:59;98816.56;;;15.10;54.80
8573;BME280;4324;42.012;24.872;2023-05-01T00:51:28;98780.75;;;14.84;54.69
8573;BME280;4324;42.012;24.872;2023-05-01T00:53:56;98798.84;;;14.95;54.24
8573;BME280;4324;42.012;24.872;2023-05-01T00:56:24;98797.22;;;14.94;54.46
8573;BME280;4324;42.012;24.872;2023-05-01T00:58:51;98819.59;;;15.07;54.22
8573;BME280;4324;42.012;24.872;2023-05-01T01:01:19;98794.94;;;14.98;53.82
8573;BME280;4324;42.012;24.872;2023-05-01T01:03:47;98780.22;;;15.02;54.00
8573;BME280;4324;42.012;24.872;2023-05-01T01:06:23;98798.31;;;15.13;54.46
8573;BME280;4324;42.012;24.872;2023-05-01T01:09:02;98802.44;;;15.29;54.59
8573;BME280;4324;42.012;24.872;2023-05-01T01:11:39;98800.81;;;15.28;54.38
8573;BME280;4324;42.012;24.872;2023-05-01T01:14:12;98813.38;;;15.47;54.25
8573;BME280;4324;42.012;24.872;2023-05-01T01:16:46;98804.53;;;15.47;54.23
8573;BME280;4324;42.012;24.872;2023-05-01T01:19:43;98816.06;;;15.54;54.47
8573;BME280;4324;42.012;24.872;2023-05-01T01:22:20;98815.25;;;15.54;54.58
8573;BME280;4324;42.012;24.872;2023-05-01T01:28:09;98825.47;;;15.43;54.23
8573;BME280;4324;42.012;24.872;2023-05-01T01:36:46;98815.03;;;14.94;53.51
8573;BME280;4324;42.012;24.872;2023-05-01T01:39:23;98832.25;;;14.91;53.53
8573;BME280;4324;42.012;24.872;2023-05-01T01:41:53;98828.06;;;14.75;53.67
8573;BME280;4324;42.012;24.872;2023-05-01T01:44:29;98840.34;;;14.70;53.41
8573;BME280;4324;42.012;24.872;2023-05-01T01:46:59;98840.72;;;14.67;53.26
8573;BME280;4324;42.012;24.872;2023-05-01T01:49:30;98826.91;;;14.50;53.27
8573;BME280;4324;42.012;24.872;2023-05-01T01:52:00;98838.19;;;14.52;53.52
8573;BME280;4324;42.012;24.872;2023-05-01T01:54:31;98832.78;;;14.45;53.60
8573;BME280;4324;42.012;24.872;2023-05-01T01:57:00;98853.56;;;14.50;53.88
8573;BME280;4324;42.012;24.872;2023-05-01T01:59:31;98832.34;;;14.42;53.76
8573;BME280;4324;42.012;24.872;2023-05-01T02:02:00;98854.38;;;14.50;53.64
8573;BME280;4324;42.012;24.872;2023-05-01T02:04:30;98848.31;;;14.42;53.98
8573;BME280;4324;42.012;24.872;2023-05-01T02:06:59;98856.53;;;14.40;54.09
8573;BME280;4324;42.012;24.872;2023-05-01T02:09:28;98857.13;;;14.42;54.13
8573;BME280;4324;42.012;24.872;2023-05-01T02:11:56;98841.88;;;14.29;53.48
8573;BME280;4324;42.012;24.872;2023-05-01T02:14:25;98864.31;;;14.42;53.75
8573;BME280;4324;42.012;24.872;2023-05-01T02:16:54;98866.16;;;14.41;53.91
8573;BME280;4324;42.012;24.872;2023-05-01T02:19:22;98861.84;;;14.40;53.89
8573;BME280;4324;42.012;24.872;2023-05-01T02:21:51;98866.75;;;14.37;53.92
8573;BME280;4324;42.012;24.872;2023-05-01T02:24:20;98864.28;;;14.35;53.60
8573;BME280;4324;42.012;24.872;2023-05-01T02:26:50;98874.09;;;14.35;54.01
8573;BME280;4324;42.012;24.872;2023-05-01T02:29:20;98842.81;;;14.15;53.73
8573;BME280;4324;42.012;24.872;2023-05-01T02:31:47;98866.25;;;14.26;54.06
8573;BME280;4324;42.012;24.872;2023-05-01T02:34:13;98837.19;;;14.03;53.50
8573;BME280;4324;42.012;24.872;2023-05-01T02:36:40;98859.66;;;14.22;53.45
8573;BME280;4324;42.012;24.872;2023-05-01T02:39:09;98868.03;;;14.19;53.70
8573;BME280;4324;42.012;24.872;2023-05-01T02:41:36;98839.59;;;13.98;53.70
8573;BME280;4324;42.012;24.872;2023-05-01T02:44:06;98874.31;;;14.12;53.43
8573;BME280;4324;42.012;24.872;2023-05-01T02:46:35;98852.34;;;14.03;53.51
8573;BME280;4324;42.012;24.872;2023-05-01T02:49:03;98865.44;;;14.04;53.53
8573;BME280;4324;42.012;24.872;2023-05-01T02:51:31;98862.69;;;13.91;53.73
8573;BME280;4324;42.012;24.872;2023-05-01T02:54:00;98873.56;;;13.96;53.98
8573;BME280;4324;42.012;24.872;2023-05-01T02:56:29;98860.78;;;13.85;53.83
8573;BME280;4324;42.012;24.872;2023-05-01T02:58:57;98881.19;;;13.99;53.47
8573;BME280;4324;42.012;24.872;2023-05-01T03:01:23;98881.19;;;13.99;53.61
8573;BME280;4324;42.012;24.872;2023-05-01T03:03:51;98869.41;;;13.87;53.63
8573;BME280;4324;42.012;24.872;2023-05-01T03:06:18;98877.19;;;13.89;54.19
8573;BME280;4324;42.012;24.872;2023-05-01T03:08:45;98871.16;;;13.80;54.07
8573;BME280;4324;42.012;24.872;2023-05-01T03:11:12;98884.34;;;13.88;53.89
8573;BME280;4324;42.012;24.872;2023-05-01T03:13:41;98886.38;;;13.86;54.08
8573;BME280;4324;42.012;24.872;2023-05-01T03:16:08;98827.91;;;13.50;54.60
8573;BME280;4324;42.012;24.872;2023-05-01T03:18:34;98887.19;;;13.87;54.34
8573;BME280;4324;42.012;24.872;2023-05-01T03:21:01;98886.63;;;13.91;53.89
8573;BME280;4324;42.012;24.872;2023-05-01T03:23:28;98869.13;;;13.82;54.16
8573;BME280;4324;42.012;24.872;2023-05-01T03:25:55;98883.53;;;13.88;54.06
8573;BME280;4324;42.012;24.872;2023-05-01T03:28:22;98890.28;;;13.90;54.01
8573;BME280;4324;42.012;24.872;2023-05-01T03:30:50;98854.94;;;13.75;54.27
8573;BME280;4324;42.012;24.872;2023-05-01T03:33:17;98889.75;;;13.95;53.90
8573;BME280;4324;42.012;24.872;2023-05-01T03:35:44;98888.91;;;13.94;53.90
8573;BME280;4324;42.012;24.872;2023-05-01T03:38:11;98891.19;;;13.97;53.96
8573;BME280;4324;42.012;24.872;2023-05-01T03:40:38;98896.34;;;13.99;54.07
8573;BME280;4324;42.012;24.872;2023-05-01T03:43:05;98852.66;;;13.72;53.54
8573;BME280;4324;42.012;24.872;2023-05-01T03:45:32;98896.13;;;14.00;53.67
8573;BME280;4324;42.012;24.872;2023-05-01T03:48:00;98891.75;;;13.93;53.69
8573;BME280;4324;42.012;24.872;2023-05-01T03:50:27;98910.91;;;14.03;53.91
8573;BME280;4324;42.012;24.872;2023-05-01T03:52:54;98907.81;;;13.99;54.27
8573;BME280;4324;42.012;24.872;2023-05-01T03:55:21;98892.34;;;13.88;54.00
8573;BME280;4324;42.012;24.872;2023-05-01T03:57:48;98912.38;;;14.06;53.93
8573;BME280;4324;42.012;24.872;2023-05-01T04:00:15;98918.31;;;14.08;54.01
8573;BME280;4324;42.012;24.872;2023-05-01T04:02:42;98919.78;;;14.10;54.27
8573;BME280;4324;42.012;24.872;2023-05-01T04:05:10;98925.19;;;14.17;54.29
8573;BME280;4324;42.012;24.872;2023-05-01T04:07:37;98924.41;;;14.23;54.41
8573;BME280;4324;42.012;24.872;2023-05-01T04:10:05;98914.97;;;14.20;54.24
8573;BME280;4324;42.012;24.872;2023-05-01T04:12:34;98930.59;;;14.30;54.03
8573;BME280;4324;42.012;24.872;2023-05-01T04:15:01;98937.56;;;14.31;54.27
8573;BME280;4324;42.012;24.872;2023-05-01T04:17:28;98938.88;;;14.35;53.88
8573;BME280;4324;42.012;24.872;2023-05-01T04:19:55;98940.50;;;14.36;53.70
8573;BME280;4324;42.012;24.872;2023-05-01T04:22:23;98930.88;;;14.35;53.76
8573;BME280;4324;42.012;24.872;2023-05-01T04:24:50;98935.16;;;14.36;53.55
8573;BME280;4324;42.012;24.872;2023-05-01T04:27:17;98936.06;;;14.43;53.55
8573;BME280;4324;42.012;24.872;2023-05-01T04:29:44;98926.38;;;14.36;53.71
8573;BME280;4324;42.012;24.872;2023-05-01T04:32:11;98926.59;;;14.41;54.00
8573;BME280;4324;42.012;24.872;2023-05-01T04:34:38;98960.88;;;14.65;54.18
8573;BME280;4324;42.012;24.872;2023-05-01T04:37:05;98959.09;;;14.79;53.90
8573;BME280;4324;42.012;24.872;2023-05-01T04:39:35;98941.72;;;14.83;54.06
8573;BME280;4324;42.012;24.872;2023-05-01T04:42:02;98917.91;;;14.82;53.71
8573;BME280;4324;42.012;24.872;2023-05-01T04:44:29;98947.22;;;15.10;53.38
8573;BME280;4324;42.012;24.872;2023-05-01T04:47:00;98942.88;;;15.09;52.99
8573;BME280;4324;42.012;24.872;2023-05-01T04:49:27;98948.94;;;15.24;52.88
8573;BME280;4324;42.012;24.872;2023-05-01T04:51:54;98963.97;;;15.32;52.72
8573;BME280;4324;42.012;24.872;2023-05-01T04:54:21;98963.34;;;15.36;52.63
8573;BME280;4324;42.012;24.872;2023-05-01T04:56:49;98969.94;;;15.40;52.84
8573;BME280;4324;42.012;24.872;2023-05-01T04:59:16;98972.84;;;15.45;53.02
8573;BME280;4324;42.012;24.872;2023-05-01T05:01:43;98976.56;;;15.51;52.93
8573;BME280;4324;42.012;24.872;2023-05-01T05:04:10;98970.03;;;15.54;52.66
8573;BME280;4324;42.012;24.872;2023-05-01T05:06:37;98986.47;;;15.64;52.96
8573;BME280;4324;42.012;24.872;2023-05-01T05:09:04;98967.19;;;15.62;52.92
8573;BME280;4324;42.012;24.872;2023-05-01T05:11:30;98987.78;;;15.75;53.18
8573;BME280;4324;42.012;24.872;2023-05-01T05:13:59;98955.47;;;15.63;53.14
8573;BME280;4324;42.012;24.872;2023-05-01T05:16:26;98976.72;;;15.84;53.21
8573;BME280;4324;42.012;24.872;2023-05-01T05:18:54;98967.66;;;15.79;53.42
8573;BME280;4324;42.012;24.872;2023-05-01T05:21:21;98988.25;;;15.98;53.53
8573;BME280;4324;42.012;24.872;2023-05-01T05:23:48;98995.28;;;16.06;53.91
8573;BME280;4324;42.012;24.872;2023-05-01T05:26:15;98985.41;;;16.13;53.23
8573;BME280;4324;42.012;24.872;2023-05-01T05:28:42;98981.75;;;16.20;53.63
8573;BME280;4324;42.012;24.872;2023-05-01T05:31:11;98983.19;;;16.30;53.74
8573;BME280;4324;42.012;24.872;2023-05-01T05:33:37;98987.13;;;16.40;53.87
8573;BME280;4324;42.012;24.872;2023-05-01T05:36:05;98969.88;;;16.43;53.98
8573;BME280;4324;42.012;24.872;2023-05-01T05:38:32;98969.03;;;16.49;54.12
8573;BME280;4324;42.012;24.872;2023-05-01T05:40:58;98964.09;;;16.53;53.98
8573;BME280;4324;42.012;24.872;2023-05-01T05:43:26;98989.22;;;16.78;53.96
8573;BME280;4324;42.012;24.872;2023-05-01T05:45:55;98978.94;;;16.75;53.78
8573;BME280;4324;42.012;24.872;2023-05-01T05:48:24;98992.09;;;16.90;53.41
8573;BME280;4324;42.012;24.872;2023-05-01T05:50:51;98995.81;;;16.96;53.23
8573;BME280;4324;42.012;24.872;2023-05-01T05:53:18;98984.06;;;16.97;53.63
8573;BME280;4324;42.012;24.872;2023-05-01T05:55:45;98959.59;;;16.86;53.57
8573;BME280;4324;42.012;24.872;2023-05-01T05:58:13;98982.84;;;17.06;53.63
8573;BME280;4324;42.012;24.872;2023-05-01T06:00:45;98991.00;;;17.24;53.71
8573;BME280;4324;42.012;24.872;2023-05-01T06:03:12;98974.75;;;17.26;53.74
8573;BME280;4324;42.012;24.872;2023-05-01T06:05:41;98994.47;;;17.45;53.76
8573;BME280;4324;42.012;24.872;2023-05-01T06:08:08;98997.94;;;17.52;53.56
8573;BME280;4324;42.012;24.872;2023-05-01T06:10:36;99002.66;;;17.63;53.55
8573;BME280;4324;42.012;24.872;2023-05-01T06:13:04;99004.03;;;17.72;53.53
8573;BME280;4324;42.012;24.872;2023-05-01T06:15:31;99009.22;;;17.80;53.29
8573;BME280;4324;42.012;24.872;2023-05-01T06:17:58;99008.34;;;17.86;53.12
8573;BME280;4324;42.012;24.872;2023-05-01T06:20:25;99018.81;;;17.95;53.20
8573;BME280;4324;42.012;24.872;2023-05-01T06:22:53;99002.31;;;17.98;53.00
8573;BME280;4324;42.012;24.872;2023-05-01T06:25:21;99002.84;;;18.13;52.91
8573;BME280;4324;42.012;24.872;2023-05-01T06:27:48;99012.06;;;18.24;52.89
8573;BME280;4324;42.012;24.872;2023-05-01T06:30:15;98989.81;;;18.23;52.73
8573;BME280;4324;42.012;24.872;2023-05-01T06:32:44;98986.03;;;18.31;52.53
8573;BME280;4324;42.012;24.872;2023-05-01T06:35:11;98978.19;;;18.36;52.19
8573;BME280;4324;42.012;24.872;2023-05-01T06:37:38;99008.31;;;18.63;52.21
8573;BME280;4324;42.012;24.872;2023-05-01T06:40:07;99000.84;;;18.72;52.31
8573;BME280;4324;42.012;24.872;2023-05-01T06:42:35;99012.06;;;18.87;52.21
8573;BME280;4324;42.012;24.872;2023-05-01T06:45:02;99020.81;;;19.01;51.99
8573;BME280;4324;42.012;24.872;2023-05-01T06:47:29;98930.81;;;18.55;51.63
8573;BME280;4324;42.012;24.872;2023-05-01T06:49:56;99027.84;;;19.20;51.78
8573;BME280;4324;42.012;24.872;2023-05-01T06:52:23;99032.84;;;19.17;51.97
8573;BME280;4324;42.012;24.872;2023-05-01T06:54:50;99025.47;;;19.12;52.35
8573;BME280;4324;42.012;24.872;2023-05-01T06:57:18;99038.31;;;19.10;52.64
8573;BME280;4324;42.012;24.872;2023-05-01T06:59:45;99035.00;;;19.08;53.10
8573;BME280;4324;42.012;24.872;2023-05-01T07:02:12;99041.84;;;19.04;53.28
8573;BME280;4324;42.012;24.872;2023-05-01T07:04:39;99047.88;;;18.99;53.75
8573;BME280;4324;42.012;24.872;2023-05-01T07:07:06;99037.78;;;18.95;54.09
8573;BME280;4324;42.012;24.872;2023-05-01T07:09:33;99050.53;;;19.06;54.39
8573;BME280;4324;42.012;24.872;2023-05-01T07:12:00;99060.34;;;19.12;54.53
8573;BME280;4324;42.012;24.872;2023-05-01T07:14:29;99066.09;;;19.16;54.78
8573;BME280;4324;42.012;24.872;2023-05-01T07:16:56;99060.91;;;19.21;54.79
8573;BME280;4324;42.012;24.872;2023-05-01T07:19:23;99066.38;;;19.32;55.07
8573;BME280;4324;42.012;24.872;2023-05-01T07:21:50;99061.16;;;19.38;55.16
8573;BME280;4324;42.012;24.872;2023-05-01T07:24:17;99070.25;;;19.37;55.24
8573;BME280;4324;42.012;24.872;2023-05-01T07:26:43;99072.72;;;19.38;55.40
8573;BME280;4324;42.012;24.872;2023-05-01T07:29:10;99069.22;;;19.38;55.87
8573;BME280;4324;42.012;24.872;2023-05-01T07:31:39;99079.28;;;19.42;55.81
8573;BME280;4324;42.012;24.872;2023-05-01T07:34:06;99082.97;;;19.48;56.15
8573;BME280;4324;42.012;24.872;2023-05-01T07:36:33;99085.78;;;19.53;56.06
8573;BME280;4324;42.012;24.872;2023-05-01T07:39:00;99084.00;;;19.47;56.04
8573;BME280;4324;42.012;24.872;2023-05-01T07:41:26;99059.34;;;19.31;56.05
8573;BME280;4324;42.012;24.872;2023-05-01T07:43:53;99081.84;;;19.55;56.08
8573;BME280;4324;42.012;24.872;2023-05-01T07:46:20;99085.78;;;19.78;55.77
8573;BME280;4324;42.012;24.872;2023-05-01T07:48:48;99079.59;;;19.96;55.34
8573;BME280;4324;42.012;24.872;2023-05-01T07:51:15;99071.81;;;20.06;55.30
8573;BME280;4324;42.012;24.872;2023-05-01T07:53:42;99080.31;;;20.21;55.01
8573;BME280;4324;42.012;24.872;2023-05-01T07:56:11;99090.88;;;20.35;54.82
8573;BME280;4324;42.012;24.872;2023-05-01T07:58:38;99076.25;;;20.30;54.60
8573;BME280;4324;42.012;24.872;2023-05-01T08:01:07;99088.41;;;20.33;54.30
8573;BME280;4324;42.012;24.872;2023-05-01T08:03:34;99095.06;;;20.30;54.42
8573;BME280;4324;42.012;24.872;2023-05-01T08:06:03;99089.25;;;20.34;54.42
8573;BME280;4324;42.012;24.872;2023-05-01T08:08:30;99078.19;;;20.23;54.58
8573;BME280;4324;42.012;24.872;2023-05-01T08:10:57;99095.88;;;20.31;54.78
8573;BME280;4324;42.012;24.872;2023-05-01T08:13:24;99086.66;;;20.39;54.76
8573;BME280;4324;42.012;24.872;2023-05-01T08:15:51;99077.41;;;20.53;54.51
8573;BME280;4324;42.012;24.872;2023-05-01T08:18:18;99090.06;;;20.64;54.25
8573;BME280;4324;42.012;24.872;2023-05-01T08:20:45;99091.84;;;20.70;54.00
8573;BME280;4324;42.012;24.872;2023-05-01T08:23:15;99081.22;;;20.75;53.60
8573;BME280;4324;42.012;24.872;2023-05-01T08:25:42;99086.16;;;20.78;53.34
8573;BME280;4324;42.012;24.872;2023-05-01T08:28:11;99100.56;;;20.84;53.18
8573;BME280;4324;42.012;24.872;2023-05-01T08:30:38;99083.94;;;20.87;53.12
8573;BME280;4324;42.012;24.872;2023-05-01T08:33:05;99075.63;;;20.89;52.90
8573;BME280;4324;42.012;24.872;2023-05-01T08:35:32;99094.41;;;21.07;52.70
8573;BME280;4324;42.012;24.872;2023-05-01T08:37:59;99085.16;;;21.15;52.52
8573;BME280;4324;42.012;24.872;2023-05-01T08:40:31;99084.56;;;21.24;52.59
8573;BME280;4324;42.012;24.872;2023-05-01T08:42:59;99089.41;;;21.34;52.31
8573;BME280;4324;42.012;24.872;2023-05-01T08:45:26;99083.31;;;21.39;51.52
8573;BME280;4324;42.012;24.872;2023-05-01T08:47:57;99082.50;;;21.50;51.50
8573;BME280;4324;42.012;24.872;2023-05-01T08:50:26;99081.66;;;21.61;50.78
8573;BME280;4324;42.012;24.872;2023-05-01T08:52:54;99067.03;;;21.57;50.54
8573;BME280;4324;42.012;24.872;2023-05-01T08:55:24;99059.41;;;21.54;50.42
8573;BME280;4324;42.012;24.872;2023-05-01T08:57:54;99069.34;;;21.65;50.34
8573;BME280;4324;42.012;24.872;2023-05-01T09:00:22;99083.38;;;21.91;50.03
8573;BME280;4324;42.012;24.872;2023-05-01T09:02:50;99080.44;;;22.04;49.95
8573;BME280;4324;42.012;24.872;2023-05-01T09:05:19;99080.41;;;22.16;49.59
8573;BME280;4324;42.012;24.872;2023-05-01T09:07:46;99077.13;;;22.26;49.50
8573;BME280;4324;42.012;24.872;2023-05-01T09:10:15;99046.06;;;22.11;49.45
8573;BME280;4324;42.012;24.872;2023-05-01T09:12:44;99076.59;;;22.40;49.12
8573;BME280;4324;42.012;24.872;2023-05-01T09:15:14;99059.94;;;22.43;48.71
8573;BME280;4324;42.012;24.872;2023-05-01T09:17:41;99070.06;;;22.53;48.51
8573;BME280;4324;42.012;24.872;2023-05-01T09:20:10;99061.06;;;22.48;48.56
8573;BME280;4324;42.012;24.872;2023-05-01T09:22:37;99056.00;;;22.51;48.09
8573;BME280;4324;42.012;24.872;2023-05-01T09:25:05;99062.03;;;22.41;48.25
8573;BME280;4324;42.012;24.872;2023-05-01T09:27:33;99066.38;;;22.42;48.41
8573;BME280;4324;42.012;24.872;2023-05-01T09:30:01;99056.84;;;22.52;47.93
8573;BME280;4324;42.012;24.872;2023-05-01T09:32:29;99064.78;;;22.75;47.59
8573;BME280;4324;42.012;24.872;2023-05-01T09:35:08;99061.31;;;22.91;47.29
8573;BME280;4324;42.012;24.872;2023-05-01T09:37:36;99064.84;;;23.09;47.06
8573;BME280;4324;42.012;24.872;2023-05-01T09:40:04;99035.38;;;23.07;46.98
8573;BME280;4324;42.012;24.872;2023-05-01T09:42:33;99060.97;;;23.38;46.98
8573;BME280;4324;42.012;24.872;2023-05-01T09:45:02;99048.03;;;23.40;46.53
8573;BME280;4324;42.012;24.872;2023-05-01T09:47:31;99056.53;;;23.49;46.20
8573;BME280;4324;42.012;24.872;2023-05-01T09:49:59;99059.88;;;23.56;46.18
8573;BME280;4324;42.012;24.872;2023-05-01T09:52:26;99052.44;;;23.47;45.41
8573;BME280;4324;42.012;24.872;2023-05-01T09:55:13;99063.31;;;23.52;45.60
8573;BME280;4324;42.012;24.872;2023-05-01T09:57:40;99054.78;;;23.60;45.40
8573;BME280;4324;42.012;24.872;2023-05-01T10:00:09;99050.59;;;23.69;45.51
8573;BME280;4324;42.012;24.872;2023-05-01T10:02:39;99060.75;;;23.79;44.76
8573;BME280;4324;42.012;24.872;2023-05-01T10:05:09;99054.16;;;23.70;44.76
8573;BME280;4324;42.012;24.872;2023-05-01T10:07:37;99024.69;;;23.34;45.08
8573;BME280;4324;42.012;24.872;2023-05-01T10:10:19;99055.72;;;23.32;45.02
8573;BME280;4324;42.012;24.872;2023-05-01T10:12:47;99041.50;;;23.36;45.16
8573;BME280;4324;42.012;24.872;2023-05-01T10:15:14;99036.31;;;23.35;44.87
8573;BME280;4324;42.012;24.872;2023-05-01T10:17:43;99038.59;;;23.43;44.63
8573;BME280;4324;42.012;24.872;2023-05-01T10:20:11;99055.03;;;23.58;44.07
8573;BME280;4324;42.012;24.872;2023-05-01T10:22:39;99047.66;;;23.71;43.67
8573;BME280;4324;42.012;24.872;2023-05-01T10:25:07;99034.00;;;23.82;43.27
8573;BME280;4324;42.012;24.872;2023-05-01T10:27:37;99031.31;;;24.04;43.30
8573;BME280;4324;42.012;24.872;2023-05-01T10:30:06;99042.59;;;24.23;43.09
8573;BME280;4324;42.012;24.872;2023-05-01T10:32:34;99051.38;;;24.35;42.73
8573;BME280;4324;42.012;24.872;2023-05-01T10:35:07;99048.78;;;24.19;42.12
8573;BME280;4324;42.012;24.872;2023-05-01T10:37:42;99041.22;;;23.99;42.29
8573;BME280;4324;42.012;24.872;2023-05-01T10:40:42;99053.19;;;24.03;42.62
8573;BME280;4324;42.012;24.872;2023-05-01T10:43:13;99053.38;;;23.96;42.63
8573;BME280;4324;42.012;24.872;2023-05-01T10:45:40;99054.34;;;23.85;42.73
8573;BME280;4324;42.012;24.872;2023-05-01T10:48:07;99064.66;;;23.88;42.54
8573;BME280;4324;42.012;24.872;2023-05-01T10:53:45;99066.28;;;23.89;42.79
8573;BME280;4324;42.012;24.872;2023-05-01T10:56:41;99071.94;;;23.87;43.23
8573;BME280;4324;42.012;24.872;2023-05-01T10:59:08;99076.91;;;23.96;43.44
8573;BME280;4324;42.012;24.872;2023-05-01T11:01:38;99067.72;;;23.97;42.47
8573;BME280;4324;42.012;24.872;2023-05-01T11:04:06;99071.44;;;24.12;42.34
8573;BME280;4324;42.012;24.872;2023-05-01T11:07:15;99072.69;;;24.27;42.46
8573;BME280;4324;42.012;24.872;2023-05-01T11:09:44;99065.13;;;24.29;42.67
8573;BME280;4324;42.012;24.872;2023-05-01T11:12:13;99074.88;;;24.30;41.99
8573;BME280;4324;42.012;24.872;2023-05-01T11:15:02;99071.72;;;24.38;42.12
8573;BME280;4324;42.012;24.872;2023-05-01T11:17:46;99070.44;;;24.41;41.58
8573;BME280;4324;42.012;24.872;2023-05-01T11:20:44;99058.66;;;24.30;41.77
8573;BME280;4324;42.012;24.872;2023-05-01T11:23:20;99077.16;;;24.16;41.78
8573;BME280;4324;42.012;24.872;2023-05-01T11:25:48;99080.78;;;23.83;41.38
8573;BME280;4324;42.012;24.872;2023-05-01T11:28:19;99081.28;;;23.80;41.61
8573;BME280;4324;42.012;24.872;2023-05-01T11:30:49;99081.44;;;23.90;41.20
8573;BME280;4324;42.012;24.872;2023-05-01T11:33:21;99076.59;;;23.92;40.73
8573;BME280;4324;42.012;24.872;2023-05-01T11:35:58;99075.09;;;24.01;40.68
8573;BME280;4324;42.012;24.872;2023-05-01T11:38:27;99077.66;;;24.13;41.12
8573;BME280;4324;42.012;24.872;2023-05-01T11:40:57;99060.09;;;24.15;40.91
8573;BME280;4324;42.012;24.872;2023-05-01T11:43:24;98998.88;;;23.65;40.81
8573;BME280;4324;42.012;24.872;2023-05-01T11:45:52;99071.19;;;23.92;40.49
8573;BME280;4324;42.012;24.872;2023-05-01T11:48:28;99062.13;;;23.64;41.23
8573;BME280;4324;42.012;24.872;2023-05-01T11:50:55;99047.34;;;23.50;41.16
8573;BME280;4324;42.012;24.872;2023-05-01T11:53:22;99054.78;;;23.60;41.73
8573;BME280;4324;42.012;24.872;2023-05-01T11:55:51;99063.44;;;23.79;41.59
8573;BME280;4324;42.012;24.872;2023-05-01T11:58:30;99064.75;;;23.98;41.27
8573;BME280;4324;42.012;24.872;2023-05-01T12:00:57;99042.50;;;23.91;40.94
8573;BME280;4324;42.012;24.872;2023-05-01T12:03:24;99050.69;;;23.96;40.88
8573;BME280;4324;42.012;24.872;2023-05-01T12:05:51;99041.50;;;23.97;40.65
8573;BME280;4324;42.012;24.872;2023-05-01T12:08:21;99053.00;;;24.09;41.06
8573;BME280;4324;42.012;24.872;2023-05-01T12:10:50;99040.81;;;24.07;40.55
8573;BME280;4324;42.012;24.872;2023-05-01T12:13:19;99043.59;;;24.17;40.49
8573;BME280;4324;42.012;24.872;2023-05-01T12:15:47;99037.84;;;24.08;40.69
8573;BME280;4324;42.012;24.872;2023-05-01T12:18:15;99065.50;;;24.15;40.85
8573;BME280;4324;42.012;24.872;2023-05-01T12:20:44;99032.94;;;24.05;41.06
8573;BME280;4324;42.012;24.872;2023-05-01T12:23:13;99062.31;;;24.19;41.58
8573;BME280;4324;42.012;24.872;2023-05-01T12:25:42;99058.06;;;24.28;41.20
8573;BME280;4324;42.012;24.872;2023-05-01T12:28:12;99045.97;;;24.35;41.09
8573;BME280;4324;42.012;24.872;2023-05-01T12:30:40;99035.97;;;24.36;40.92
8573;BME280;4324;42.012;24.872;2023-05-01T12:33:08;99047.34;;;24.38;41.04
8573;BME280;4324;42.012;24.872;2023-05-01T12:35:36;99051.16;;;24.37;41.21
8573;BME280;4324;42.012;24.872;2023-05-01T12:38:12;99047.31;;;24.33;40.75
8573;BME280;4324;42.012;24.872;2023-05-01T12:40:49;99033.91;;;24.43;40.54
8573;BME280;4324;42.012;24.872;2023-05-01T12:43:19;99057.72;;;24.73;40.23
8573;BME280;4324;42.012;24.872;2023-05-01T12:45:51;99051.50;;;24.73;39.81
8573;BME280;4324;42.012;24.872;2023-05-01T12:48:19;99055.88;;;24.74;39.19
8573;BME280;4324;42.012;24.872;2023-05-01T12:50:46;99063.91;;;24.69;38.58
8573;BME280;4324;42.012;24.872;2023-05-01T12:53:19;99036.16;;;24.51;38.97
8573;BME280;4324;42.012;24.872;2023-05-01T12:55:47;99057.59;;;24.58;39.04
8573;BME280;4324;42.012;24.872;2023-05-01T12:58:15;99059.66;;;24.46;39.58
8573;BME280;4324;42.012;24.872;2023-05-01T13:00:45;99023.34;;;24.20;39.30
8573;BME280;4324;42.012;24.872;2023-05-01T13:03:13;99034.09;;;24.36;39.51
8573;BME280;4324;42.012;24.872;2023-05-01T13:05:55;99039.19;;;24.55;39.39
8573;BME280;4324;42.012;24.872;2023-05-01T13:08:27;99036.50;;;24.60;38.96
8573;BME280;4324;42.012;24.872;2023-05-01T13:10:55;99041.88;;;24.55;39.21
8573;BME280;4324;42.012;24.872;2023-05-01T13:13:26;99027.66;;;24.43;38.98
8573;BME280;4324;42.012;24.872;2023-05-01T13:16:02;99048.63;;;24.52;39.01
8573;BME280;4324;42.012;24.872;2023-05-01T13:18:31;99039.13;;;24.50;39.03
8573;BME280;4324;42.012;24.872;2023-05-01T13:21:05;99042.69;;;24.55;38.83
8573;BME280;4324;42.012;24.872;2023-05-01T13:23:32;99038.03;;;24.51;38.72
8573;BME280;4324;42.012;24.872;2023-05-01T13:26:00;99040.31;;;24.37;39.03
8573;BME280;4324;42.012;24.872;2023-05-01T13:28:27;99051.84;;;24.27;38.70
8573;BME280;4324;42.012;24.872;2023-05-01T13:30:56;99038.84;;;24.02;38.59
8573;BME280;4324;42.012;24.872;2023-05-01T13:33:23;99045.28;;;23.96;38.90